createdAt,value
2023-06-03T00:03:57.431Z,0.97
2023-06-03T00:09:01.206Z,0.83
2023-06-03T00:14:04.818Z,0.60
2023-06-03T00:19:09.821Z,0.60
2023-06-03T00:24:14.028Z,0.90
2023-06-03T00:29:17.628Z,0.93
2023-06-03T00:34:23.580Z,0.70
2023-06-03T00:39:27.193Z,0.83
2023-06-03T00:44:30.818Z,0.70
2023-06-03T00:49:36.838Z,0.70
2023-06-03T00:54:40.498Z,0.60
2023-06-03T00:59:44.389Z,0.50
2023-06-03T01:04:50.361Z,0.90
2023-06-03T01:10:04.697Z,0.90
2023-06-03T01:15:11.318Z,0.97
2023-06-03T01:20:18.066Z,1.00
2023-06-03T01:25:24.427Z,0.90
2023-06-03T01:30:28.088Z,0.60
2023-06-03T01:35:33.534Z,1.07
2023-06-03T01:40:39.843Z,0.70
2023-06-03T01:45:43.812Z,0.90
2023-06-03T01:50:47.771Z,0.90
2023-06-03T01:55:54.981Z,1.20
2023-06-03T02:00:58.718Z,0.80
2023-06-03T02:06:02.389Z,0.97
2023-06-03T02:11:07.551Z,1.10
2023-06-03T02:16:12.165Z,1.13
2023-06-03T02:21:15.934Z,1.37
2023-06-03T02:26:20.997Z,1.03
2023-06-03T02:31:24.690Z,1.07
2023-06-03T02:36:28.304Z,1.00
2023-06-03T02:41:33.359Z,1.27
2023-06-03T02:46:37.735Z,0.80
2023-06-03T02:51:42.045Z,0.97
2023-06-03T02:56:47.173Z,1.20
2023-06-03T03:01:50.860Z,1.07
2023-06-03T03:06:55.224Z,0.87
2023-06-03T03:12:00.177Z,1.23
2023-06-03T03:17:04.914Z,1.10
2023-06-03T03:22:08.672Z,1.10
2023-06-03T03:27:13.749Z,1.07
2023-06-03T03:32:20.977Z,0.80
2023-06-03T03:37:25.068Z,0.93
2023-06-03T03:42:30.149Z,0.90
2023-06-03T03:47:35.654Z,1.03
2023-06-03T03:52:39.475Z,0.90
2023-06-03T03:57:45.217Z,0.80
2023-06-03T04:02:52.581Z,0.73
2023-06-03T04:07:56.438Z,0.90
2023-06-03T04:13:01.543Z,0.70
2023-06-03T04:18:05.791Z,0.80
2023-06-03T04:23:16.179Z,0.80
2023-06-03T04:28:21.390Z,0.80
2023-06-03T04:33:25.165Z,1.00
2023-06-03T04:38:29.366Z,0.80
2023-06-03T04:43:34.926Z,0.97
2023-06-03T04:48:42.440Z,0.90
2023-06-03T04:53:46.611Z,0.70
2023-06-03T04:58:55.395Z,0.70
2023-06-03T05:04:03.939Z,0.77
2023-06-03T05:09:10.757Z,0.90
2023-06-03T05:14:18.396Z,0.90
2023-06-03T05:19:22.322Z,0.93
2023-06-03T05:24:26.136Z,0.93
2023-06-03T05:29:31.795Z,1.20
2023-06-03T05:34:35.683Z,0.77
2023-06-03T05:39:40.519Z,0.80
2023-06-03T05:44:48.164Z,0.80
2023-06-03T05:49:52.090Z,0.70
2023-06-03T05:54:55.869Z,0.70
2023-06-03T06:00:00.880Z,0.50
2023-06-03T06:05:07.786Z,0.60
2023-06-03T06:10:12.433Z,0.67
2023-06-03T06:15:17.712Z,0.70
2023-06-03T06:20:21.493Z,0.60
2023-06-03T06:25:25.211Z,0.77
2023-06-03T06:30:30.376Z,0.60
2023-06-03T06:35:35.440Z,0.60
2023-06-03T06:40:41.548Z,0.63
2023-06-03T06:45:53.198Z,0.60
2023-06-03T06:50:59.984Z,0.60
2023-06-03T06:56:10.509Z,0.50
2023-06-03T07:01:29.465Z,0.60
2023-06-03T07:06:34.902Z,0.60
2023-06-03T07:11:46.079Z,0.47
2023-06-03T07:16:53.354Z,0.40
2023-06-03T07:21:57.122Z,0.53
2023-06-03T07:27:02.254Z,0.60
2023-06-03T07:32:10.190Z,0.60
2023-06-03T07:37:14.813Z,0.70
2023-06-03T07:42:22.881Z,0.80
2023-06-03T07:47:39.923Z,0.70
2023-06-03T07:52:43.581Z,0.70
2023-06-03T07:57:48.487Z,0.60
2023-06-03T08:02:53.623Z,0.60
2023-06-03T08:07:57.298Z,0.93
2023-06-03T08:13:00.864Z,0.80
2023-06-03T08:18:07.818Z,0.80
2023-06-03T08:23:11.450Z,1.10
2023-06-03T08:28:15.538Z,0.93
2023-06-03T08:33:20.569Z,1.00
2023-06-03T08:38:24.360Z,0.90
2023-06-03T08:43:40.599Z,1.00
2023-06-03T08:48:52.513Z,0.80
2023-06-03T08:53:56.397Z,0.90
2023-06-03T08:59:03.680Z,0.80
2023-06-03T09:04:08.940Z,0.90
2023-06-03T09:09:14.949Z,0.70
2023-06-03T09:14:20.184Z,0.97
2023-06-03T09:19:28.488Z,1.03
2023-06-03T09:24:32.158Z,1.00
2023-06-03T09:29:35.864Z,0.83
2023-06-03T09:34:43.673Z,0.90
2023-06-03T09:39:47.321Z,0.80
2023-06-03T09:44:55.783Z,1.10
2023-06-03T09:50:05.440Z,1.00
2023-06-03T09:55:11.148Z,0.90
2023-06-03T10:00:15.911Z,1.13
2023-06-03T10:05:31.342Z,1.20
2023-06-03T10:10:36.214Z,0.90
2023-06-03T10:15:41.056Z,0.90
2023-06-03T10:20:46.048Z,1.27
2023-06-03T10:25:53.578Z,1.00
2023-06-03T10:30:58.874Z,1.20
2023-06-03T10:36:05.056Z,1.13
2023-06-03T10:41:10.197Z,1.00
2023-06-03T10:46:14.682Z,1.10
2023-06-03T10:51:33.790Z,0.80
2023-06-03T10:56:45.236Z,1.10
2023-06-03T11:02:00.422Z,1.00
2023-06-03T11:07:06.824Z,1.40
2023-06-03T11:12:13.819Z,1.17
2023-06-03T11:17:19.535Z,1.10
2023-06-03T11:22:46.829Z,1.00
2023-06-03T11:27:50.445Z,1.00
2023-06-03T11:33:12.950Z,1.00
2023-06-03T11:38:17.993Z,0.90
2023-06-03T11:43:21.580Z,1.13
2023-06-03T11:48:33.738Z,0.90
2023-06-03T11:53:41.104Z,1.00
2023-06-03T11:58:53.927Z,1.10
2023-06-03T12:04:01.020Z,1.20
2023-06-03T12:09:06.292Z,1.20
2023-06-03T12:14:10.372Z,0.80
2023-06-03T12:19:14.000Z,0.87
2023-06-03T12:24:19.106Z,1.10
2023-06-03T12:29:23.058Z,1.10
2023-06-03T12:34:35.328Z,0.87
2023-06-03T12:39:50.253Z,1.00
2023-06-03T12:44:54.575Z,0.80
2023-06-03T12:50:06.591Z,1.10
2023-06-03T12:55:13.145Z,1.00
2023-06-03T13:00:20.209Z,0.83
2023-06-03T13:05:24.505Z,0.80
2023-06-03T13:10:30.078Z,0.93
2023-06-03T13:15:33.775Z,0.80
2023-06-03T13:20:37.354Z,1.00
2023-06-03T13:25:42.347Z,0.90
2023-06-03T13:30:45.938Z,0.90
2023-06-03T13:35:49.640Z,0.57
2023-06-03T13:40:54.665Z,0.73
2023-06-03T13:46:00.151Z,0.60
2023-06-03T13:51:04.283Z,0.63
2023-06-03T13:56:09.427Z,0.80
2023-06-03T14:01:13.072Z,0.87
2023-06-03T14:06:16.957Z,0.73
2023-06-03T14:11:21.938Z,0.93
2023-06-03T14:16:27.766Z,0.70
2023-06-03T14:21:31.570Z,0.60
2023-06-03T14:26:39.312Z,0.60
2023-06-03T14:31:44.815Z,0.80
2023-06-03T14:36:48.614Z,0.67
2023-06-03T14:41:54.348Z,0.70
2023-06-03T14:46:57.986Z,0.60
2023-06-03T14:52:01.573Z,0.60
2023-06-03T14:57:07.546Z,0.47
2023-06-03T15:02:11.343Z,0.53
2023-06-03T15:07:16.012Z,0.70
2023-06-03T15:12:21.067Z,0.60
2023-06-03T15:17:24.679Z,0.50
2023-06-03T15:22:28.323Z,0.67
2023-06-03T15:27:33.551Z,0.60
2023-06-03T15:32:38.043Z,0.80
2023-06-03T15:37:41.678Z,0.50
2023-06-03T15:42:46.752Z,0.60
2023-06-03T15:47:50.391Z,0.50
2023-06-03T15:52:53.947Z,0.50
2023-06-03T15:57:58.985Z,0.60
2023-06-03T16:03:02.642Z,0.50
2023-06-03T16:08:06.287Z,0.50
2023-06-03T16:13:11.302Z,0.40
2023-06-03T16:18:14.981Z,0.40
2023-06-03T16:23:18.698Z,0.50
2023-06-03T16:28:23.661Z,0.50
2023-06-03T16:33:27.662Z,0.40
2023-06-03T16:38:32.293Z,0.50
2023-06-03T16:43:37.248Z,0.60
2023-06-03T16:48:40.793Z,0.50
2023-06-03T16:53:44.879Z,0.50
2023-06-03T16:58:49.865Z,0.50
2023-06-03T17:03:53.496Z,0.67
2023-06-03T17:08:57.605Z,0.50
2023-06-03T17:14:03.834Z,0.60
2023-06-03T17:19:07.714Z,0.50
2023-06-03T17:24:11.294Z,0.50
2023-06-03T17:29:16.267Z,0.40
2023-06-03T17:34:19.879Z,0.40
2023-06-03T17:39:23.445Z,0.57
2023-06-03T17:44:28.393Z,0.40
2023-06-03T17:49:32.026Z,0.50
2023-06-03T17:54:35.636Z,0.50
2023-06-03T17:59:40.570Z,0.40
2023-06-03T18:04:44.362Z,0.40
2023-06-03T18:09:47.959Z,0.37
2023-06-03T18:14:52.870Z,0.53
2023-06-03T18:19:58.399Z,0.40
2023-06-03T18:25:02.393Z,0.50
2023-06-03T18:30:08.742Z,0.40
2023-06-03T18:35:12.391Z,0.40
2023-06-03T18:40:16.371Z,0.30
2023-06-03T18:45:21.358Z,0.40
2023-06-03T18:50:25.002Z,0.47
2023-06-03T18:55:29.839Z,0.40
2023-06-03T19:00:36.952Z,0.27
2023-06-03T19:05:40.784Z,0.40
2023-06-03T19:10:44.409Z,0.33
2023-06-03T19:15:49.898Z,0.50
2023-06-03T19:20:53.564Z,0.60
2023-06-03T19:25:57.134Z,0.50
2023-06-03T19:31:02.099Z,0.50
2023-06-03T19:36:06.376Z,0.50
2023-06-03T19:41:11.052Z,0.40
2023-06-03T19:46:15.993Z,0.40
2023-06-03T19:51:19.653Z,0.37
2023-06-03T19:56:24.441Z,0.60
2023-06-03T20:01:29.433Z,0.50
2023-06-03T20:06:36.066Z,0.37
2023-06-03T20:11:39.655Z,0.40
2023-06-03T20:16:44.925Z,0.50
2023-06-03T20:21:49.090Z,0.70
2023-06-03T20:26:52.646Z,0.43
2023-06-03T20:31:57.604Z,0.50
2023-06-03T20:37:01.564Z,0.57
2023-06-03T20:42:07.205Z,0.50
2023-06-03T20:47:16.252Z,0.60
2023-06-03T20:52:20.073Z,0.50
2023-06-03T20:57:25.372Z,0.50
2023-06-03T21:02:30.353Z,0.40
2023-06-03T21:07:33.950Z,0.50
2023-06-03T21:12:37.957Z,0.50
2023-06-03T21:17:42.978Z,0.37
2023-06-03T21:22:46.569Z,0.50
2023-06-03T21:27:50.131Z,0.50
2023-06-03T21:32:55.041Z,0.40
2023-06-03T21:37:58.642Z,0.40
2023-06-03T21:43:02.256Z,0.40
2023-06-03T21:48:07.313Z,0.70
2023-06-03T21:53:10.918Z,0.50
2023-06-03T21:58:14.515Z,0.50
2023-06-03T22:03:19.551Z,0.60
2023-06-03T22:08:23.158Z,0.50
2023-06-03T22:13:28.043Z,0.43
2023-06-03T22:18:33.005Z,0.60
2023-06-03T22:23:36.653Z,0.30
2023-06-03T22:28:40.324Z,0.43
2023-06-03T22:33:45.220Z,0.60
2023-06-03T22:38:48.780Z,0.40
2023-06-03T22:43:52.548Z,0.50
2023-06-03T22:48:57.536Z,0.50
2023-06-03T22:54:01.147Z,0.50
2023-06-03T22:59:04.738Z,0.63
2023-06-03T23:04:10.698Z,0.50
2023-06-03T23:09:14.640Z,0.40
2023-06-03T23:14:18.302Z,0.30
2023-06-03T23:19:23.296Z,0.50
2023-06-03T23:24:26.901Z,0.40
2023-06-03T23:29:30.560Z,0.53
2023-06-03T23:34:35.511Z,0.30
2023-06-03T23:39:39.126Z,0.40
2023-06-03T23:44:42.703Z,0.53
2023-06-03T23:49:47.648Z,0.70
2023-06-03T23:54:51.345Z,0.33
2023-06-03T23:59:54.927Z,0.30
